createdAt,value
2024-01-27T00:00:12.342Z,3.45
2024-01-27T00:02:14.222Z,3.13
2024-01-27T00:04:15.984Z,2.78
2024-01-27T00:06:17.740Z,2.92
2024-01-27T00:08:19.613Z,2.10
2024-01-27T00:10:23.770Z,2.60
2024-01-27T00:12:31.208Z,3.03
2024-01-27T00:14:43.117Z,3.10
2024-01-27T00:16:47.648Z,4.03
2024-01-27T00:19:00.057Z,3.40
2024-01-27T00:21:06.381Z,2.60
2024-01-27T00:23:09.324Z,2.55
2024-01-27T00:25:11.060Z,3.50
2024-01-27T00:27:12.971Z,4.20
2024-01-27T00:29:14.851Z,3.55
2024-01-27T00:31:16.517Z,3.40
2024-01-27T00:33:18.356Z,2.88
2024-01-27T00:35:20.062Z,2.92
2024-01-27T00:37:21.722Z,3.00
2024-01-27T00:39:24.000Z,4.00
2024-01-27T00:41:25.706Z,5.50
2024-01-27T00:43:27.372Z,3.30
2024-01-27T00:45:29.959Z,2.85
2024-01-27T00:47:32.793Z,3.25
2024-01-27T00:49:34.755Z,2.70
2024-01-27T00:51:36.501Z,3.42
2024-01-27T00:53:38.250Z,3.08
2024-01-27T00:55:40.417Z,2.67
2024-01-27T00:57:42.424Z,2.38
2024-01-27T00:59:44.117Z,3.25
2024-01-27T01:01:45.810Z,2.92
2024-01-27T01:03:47.560Z,2.45
2024-01-27T01:05:49.335Z,2.70
2024-01-27T01:07:51.188Z,2.58
2024-01-27T01:09:53.129Z,2.70
2024-01-27T01:11:55.157Z,3.22
2024-01-27T01:13:57.019Z,3.13
2024-01-27T01:15:58.754Z,2.50
2024-01-27T01:18:00.567Z,3.17
2024-01-27T01:20:02.805Z,2.33
2024-01-27T01:22:04.820Z,2.72
2024-01-27T01:24:06.598Z,2.38
2024-01-27T01:26:08.504Z,2.53
2024-01-27T01:28:11.019Z,2.60
2024-01-27T01:30:13.457Z,2.15
2024-01-27T01:32:15.194Z,2.17
2024-01-27T01:34:17.086Z,2.28
2024-01-27T01:36:18.822Z,2.53
2024-01-27T01:38:20.526Z,2.25
2024-01-27T01:40:22.223Z,2.33
2024-01-27T01:42:26.228Z,2.70
2024-01-27T01:44:33.611Z,1.63
2024-01-27T01:46:35.491Z,2.42
2024-01-27T01:48:37.477Z,2.35
2024-01-27T01:50:39.264Z,2.08
2024-01-27T01:52:41.014Z,2.08
2024-01-27T01:54:42.857Z,2.20
2024-01-27T01:56:44.586Z,3.17
2024-01-27T01:58:46.317Z,2.92
2024-01-27T02:00:48.331Z,2.20
2024-01-27T02:02:50.253Z,2.45
2024-01-27T02:04:52.355Z,2.92
2024-01-27T02:06:54.230Z,2.20
2024-01-27T02:08:56.329Z,2.03
2024-01-27T02:10:59.439Z,2.40
2024-01-27T02:13:01.297Z,1.85
2024-01-27T02:15:03.133Z,1.90
2024-01-27T02:17:05.931Z,1.77
2024-01-27T02:19:07.898Z,2.38
2024-01-27T02:21:09.732Z,1.92
2024-01-27T02:23:11.494Z,1.58
2024-01-27T02:25:13.349Z,1.40
2024-01-27T02:27:15.148Z,1.40
2024-01-27T02:29:17.016Z,2.25
2024-01-27T02:31:18.744Z,1.50
2024-01-27T02:33:20.598Z,2.70
2024-01-27T02:35:22.367Z,2.42
2024-01-27T02:37:25.608Z,1.73
2024-01-27T02:39:27.480Z,1.48
2024-01-27T02:41:29.341Z,1.52
2024-01-27T02:43:31.085Z,1.85
2024-01-27T02:45:33.069Z,1.90
2024-01-27T02:47:35.069Z,1.83
2024-01-27T02:49:37.104Z,1.27
2024-01-27T02:51:39.030Z,2.30
2024-01-27T02:53:40.873Z,2.50
2024-01-27T02:55:42.556Z,1.75
2024-01-27T02:57:44.268Z,1.00
2024-01-27T02:59:49.728Z,1.45
2024-01-27T03:01:51.437Z,1.88
2024-01-27T03:03:53.438Z,2.17
2024-01-27T03:05:55.300Z,1.58
2024-01-27T03:07:58.404Z,1.77
2024-01-27T03:10:00.196Z,1.65
2024-01-27T03:12:02.018Z,1.38
2024-01-27T03:14:03.831Z,1.77
2024-01-27T03:16:10.194Z,1.25
2024-01-27T03:18:12.106Z,1.33
2024-01-27T03:20:13.920Z,1.20
2024-01-27T03:22:15.663Z,1.38
2024-01-27T03:24:17.639Z,1.25
2024-01-27T03:26:19.374Z,1.63
2024-01-27T03:28:21.177Z,1.40
2024-01-27T03:30:22.915Z,1.42
2024-01-27T03:32:24.638Z,1.60
2024-01-27T03:34:28.986Z,1.40
2024-01-27T03:36:30.857Z,1.90
2024-01-27T03:38:32.712Z,1.45
2024-01-27T03:40:34.459Z,1.25
2024-01-27T03:42:36.278Z,2.83
2024-01-27T03:44:38.037Z,2.38
2024-01-27T03:46:40.510Z,2.03
2024-01-27T03:48:42.653Z,1.50
2024-01-27T03:50:44.408Z,1.58
2024-01-27T03:52:46.525Z,2.13
2024-01-27T03:54:48.253Z,1.40
2024-01-27T03:56:50.027Z,1.98
2024-01-27T03:58:51.732Z,1.95
2024-01-27T04:00:53.489Z,2.28
2024-01-27T04:02:55.270Z,1.48
2024-01-27T04:04:57.017Z,1.60
2024-01-27T04:06:58.725Z,1.70
2024-01-27T04:09:00.644Z,1.40
2024-01-27T04:11:06.015Z,1.17
2024-01-27T04:13:14.289Z,1.15
2024-01-27T04:15:18.270Z,0.95
2024-01-27T04:17:25.449Z,1.83
2024-01-27T04:19:27.265Z,2.10
2024-01-27T04:21:34.132Z,1.67
2024-01-27T04:23:39.918Z,1.08
2024-01-27T04:25:46.931Z,1.77
2024-01-27T04:27:50.029Z,1.08
2024-01-27T04:29:55.547Z,1.33
2024-01-27T04:31:57.253Z,1.00
2024-01-27T04:34:02.927Z,1.02
2024-01-27T04:36:08.131Z,1.10
2024-01-27T04:38:10.410Z,1.67
2024-01-27T04:40:13.494Z,1.33
2024-01-27T04:42:15.455Z,0.93
2024-01-27T04:44:17.226Z,1.25
2024-01-27T04:46:18.898Z,1.08
2024-01-27T04:48:20.716Z,1.10
2024-01-27T04:50:22.577Z,1.45
2024-01-27T04:52:24.813Z,1.70
2024-01-27T04:54:26.613Z,1.35
2024-01-27T04:56:28.368Z,1.20
2024-01-27T04:58:30.135Z,1.40
2024-01-27T05:00:32.100Z,1.02
2024-01-27T05:02:41.114Z,1.08
2024-01-27T05:04:42.969Z,1.83
2024-01-27T05:06:46.874Z,1.50
2024-01-27T05:08:48.757Z,1.42
2024-01-27T05:10:51.087Z,1.52
2024-01-27T05:12:52.843Z,1.60
2024-01-27T05:14:54.585Z,1.10
2024-01-27T05:16:56.352Z,1.10
2024-01-27T05:18:58.144Z,0.93
2024-01-27T05:20:59.884Z,2.28
2024-01-27T05:23:01.578Z,1.30
2024-01-27T05:25:05.796Z,1.30
2024-01-27T05:27:07.773Z,1.15
2024-01-27T05:29:10.047Z,1.55
2024-01-27T05:31:11.761Z,1.23
2024-01-27T05:33:13.833Z,1.20
2024-01-27T05:35:15.744Z,1.20
2024-01-27T05:37:17.560Z,1.40
2024-01-27T05:39:19.311Z,1.98
2024-01-27T05:41:21.039Z,1.77
2024-01-27T05:43:23.888Z,1.17
2024-01-27T05:45:27.666Z,1.33
2024-01-27T05:47:30.120Z,1.35
2024-01-27T05:49:32.010Z,1.70
2024-01-27T05:51:35.121Z,1.15
2024-01-27T05:53:37.738Z,2.20
2024-01-27T05:55:39.479Z,1.50
2024-01-27T05:57:41.230Z,1.67
2024-01-27T05:59:42.912Z,1.27
2024-01-27T06:01:45.780Z,1.10
2024-01-27T06:03:48.197Z,1.15
2024-01-27T06:05:50.215Z,1.05
2024-01-27T06:07:51.884Z,1.30
2024-01-27T06:09:53.658Z,0.93
2024-01-27T06:11:55.488Z,1.35
2024-01-27T06:13:57.308Z,1.20
2024-01-27T06:15:59.052Z,1.98
2024-01-27T06:18:01.152Z,1.00
2024-01-27T06:20:04.807Z,1.35
2024-01-27T06:22:06.883Z,0.98
2024-01-27T06:24:08.809Z,1.25
2024-01-27T06:26:10.855Z,0.82
2024-01-27T06:28:12.613Z,1.10
2024-01-27T06:30:15.812Z,0.85
2024-01-27T06:32:17.562Z,1.20
2024-01-27T06:34:19.770Z,1.60
2024-01-27T06:36:24.227Z,1.60
2024-01-27T06:38:26.133Z,1.27
2024-01-27T06:40:27.981Z,1.17
2024-01-27T06:42:39.144Z,0.90
2024-01-27T06:44:40.915Z,1.67
2024-01-27T06:46:42.555Z,1.15
2024-01-27T06:48:44.754Z,1.60
2024-01-27T06:50:46.537Z,1.67
2024-01-27T06:52:48.270Z,2.00
2024-01-27T06:54:49.935Z,1.10
2024-01-27T06:56:52.865Z,1.45
2024-01-27T06:58:54.538Z,1.00
2024-01-27T07:00:56.365Z,1.73
2024-01-27T07:02:59.817Z,1.27
2024-01-27T07:05:02.024Z,1.38
2024-01-27T07:07:03.931Z,1.77
2024-01-27T07:09:05.737Z,1.48
2024-01-27T07:11:07.418Z,2.13
2024-01-27T07:13:09.155Z,1.33
2024-01-27T07:15:11.078Z,1.67
2024-01-27T07:17:12.956Z,1.17
2024-01-27T07:19:15.084Z,1.90
2024-01-27T07:21:18.287Z,1.20
2024-01-27T07:23:20.704Z,1.45
2024-01-27T07:25:22.483Z,1.20
2024-01-27T07:27:24.866Z,1.15
2024-01-27T07:29:28.268Z,1.45
2024-01-27T07:31:34.437Z,1.02
2024-01-27T07:33:36.366Z,1.15
2024-01-27T07:35:38.214Z,1.25
2024-01-27T07:37:39.942Z,2.55
2024-01-27T07:39:41.794Z,1.38
2024-01-27T07:41:44.371Z,1.48
2024-01-27T07:43:46.038Z,1.50
2024-01-27T07:45:48.012Z,1.45
2024-01-27T07:47:50.062Z,1.67
2024-01-27T07:49:51.998Z,1.30
2024-01-27T07:51:54.000Z,1.40
2024-01-27T07:53:55.843Z,2.45
2024-01-27T07:55:57.565Z,1.63
2024-01-27T07:57:59.420Z,1.88
2024-01-27T08:00:01.200Z,1.55
2024-01-27T08:02:02.996Z,1.40
2024-01-27T08:04:05.298Z,1.23
2024-01-27T08:06:10.563Z,1.30
2024-01-27T08:08:12.740Z,1.88
2024-01-27T08:10:14.461Z,1.23
2024-01-27T08:12:16.116Z,1.88
2024-01-27T08:14:17.891Z,1.52
2024-01-27T08:16:19.587Z,1.77
2024-01-27T08:18:21.427Z,1.27
2024-01-27T08:20:23.376Z,2.30
2024-01-27T08:22:25.109Z,1.55
2024-01-27T08:24:27.035Z,1.42
2024-01-27T08:26:28.835Z,1.25
2024-01-27T08:28:30.532Z,1.70
2024-01-27T08:30:32.343Z,1.67
2024-01-27T08:32:42.872Z,1.67
2024-01-27T08:34:44.657Z,1.50
2024-01-27T08:36:46.360Z,1.10
2024-01-27T08:38:48.184Z,3.17
2024-01-27T08:40:49.962Z,1.50
2024-01-27T08:42:51.857Z,1.92
2024-01-27T08:44:53.561Z,1.30
2024-01-27T08:46:57.835Z,2.58
2024-01-27T08:49:00.862Z,1.30
2024-01-27T08:51:02.739Z,1.50
2024-01-27T08:53:04.863Z,1.73
2024-01-27T08:55:06.859Z,1.67
2024-01-27T08:57:08.658Z,1.90
2024-01-27T08:59:10.471Z,1.73
2024-01-27T09:01:14.217Z,1.65
2024-01-27T09:03:16.396Z,1.60
2024-01-27T09:05:18.366Z,1.83
2024-01-27T09:07:20.072Z,1.83
2024-01-27T09:09:21.996Z,2.22
2024-01-27T09:11:24.768Z,1.88
2024-01-27T09:13:26.865Z,1.77
2024-01-27T09:15:28.637Z,2.40
2024-01-27T09:17:30.434Z,1.67
2024-01-27T09:19:32.292Z,1.80
2024-01-27T09:21:34.360Z,2.05
2024-01-27T09:23:36.574Z,1.67
2024-01-27T09:25:38.560Z,2.03
2024-01-27T09:27:40.604Z,1.98
2024-01-27T09:29:42.396Z,2.22
2024-01-27T09:31:44.425Z,1.83
2024-01-27T09:33:46.232Z,1.83
2024-01-27T09:35:48.150Z,2.00
2024-01-27T09:37:49.910Z,2.03
2024-01-27T09:39:51.685Z,1.65
2024-01-27T09:41:55.691Z,1.70
2024-01-27T09:44:03.991Z,2.03
2024-01-27T09:46:05.726Z,1.23
2024-01-27T09:48:11.638Z,1.60
2024-01-27T09:50:15.881Z,1.73
2024-01-27T09:52:17.786Z,1.70
2024-01-27T09:54:20.820Z,1.95
2024-01-27T09:56:23.521Z,2.17
2024-01-27T09:58:28.480Z,2.00
2024-01-27T10:02:34.070Z,1.77
2024-01-27T10:04:36.643Z,1.98
2024-01-27T10:06:38.513Z,2.00
2024-01-27T10:08:40.353Z,2.10
2024-01-27T10:10:43.359Z,1.73
2024-01-27T10:12:50.302Z,2.00
2024-01-27T10:14:53.864Z,2.15
2024-01-27T10:16:56.110Z,2.38
2024-01-27T10:19:02.732Z,2.20
2024-01-27T10:21:17.141Z,2.53
2024-01-27T10:23:18.972Z,1.95
2024-01-27T10:25:20.737Z,2.47
2024-01-27T10:27:22.580Z,2.83
2024-01-27T10:29:24.470Z,2.72
2024-01-27T10:31:39.455Z,1.95
2024-01-27T10:33:41.615Z,2.30
2024-01-27T10:35:48.543Z,1.95
2024-01-27T10:37:57.619Z,1.77
2024-01-27T10:40:04.419Z,1.30
2024-01-27T10:42:07.113Z,1.27
2024-01-27T10:46:32.470Z,1.67
2024-01-27T10:48:40.776Z,1.75
2024-01-27T10:50:45.432Z,1.92
2024-01-27T10:52:53.335Z,1.85
2024-01-27T10:55:04.552Z,2.38
2024-01-27T10:57:09.055Z,1.60
2024-01-27T10:59:13.669Z,1.52
2024-01-27T11:01:18.217Z,1.45
2024-01-27T11:03:20.791Z,1.67
2024-01-27T11:05:24.359Z,1.33
2024-01-27T11:07:40.402Z,2.58
2024-01-27T11:09:43.677Z,2.17
2024-01-27T11:11:47.297Z,2.47
2024-01-27T11:13:49.698Z,1.40
2024-01-27T11:15:57.606Z,2.00
2024-01-27T11:18:05.196Z,2.03
2024-01-27T11:20:09.459Z,1.80
2024-01-27T11:22:26.327Z,1.30
2024-01-27T11:24:28.170Z,1.42
2024-01-27T11:26:34.238Z,1.85
2024-01-27T11:28:37.809Z,1.48
2024-01-27T11:30:41.362Z,1.40
2024-01-27T11:32:43.387Z,1.75
2024-01-27T11:34:46.743Z,2.42
2024-01-27T11:36:49.438Z,1.77
2024-01-27T11:38:52.570Z,0.70
2024-01-27T11:40:54.355Z,2.13
2024-01-27T11:42:59.993Z,0.90
2024-01-27T11:45:02.698Z,1.55
2024-01-27T11:47:05.034Z,1.48
2024-01-27T11:49:07.092Z,1.58
2024-01-27T11:51:12.323Z,1.13
2024-01-27T11:53:14.117Z,1.80
2024-01-27T11:55:16.546Z,1.40
2024-01-27T11:57:18.372Z,1.67
2024-01-27T11:59:20.638Z,1.70
2024-01-27T12:01:22.950Z,1.17
2024-01-27T12:03:45.580Z,1.90
2024-01-27T12:05:47.883Z,1.45
2024-01-27T12:07:49.945Z,1.35
2024-01-27T12:09:51.985Z,1.42
2024-01-27T12:12:00.029Z,1.73
2024-01-27T12:14:02.179Z,1.25
2024-01-27T12:16:04.213Z,1.33
2024-01-27T12:18:06.651Z,1.63
2024-01-27T12:20:17.846Z,1.23
2024-01-27T12:22:29.695Z,1.90
2024-01-27T12:24:33.741Z,1.52
2024-01-27T12:26:40.359Z,1.58
2024-01-27T12:28:42.391Z,1.50
2024-01-27T12:30:44.722Z,1.15
2024-01-27T12:32:46.635Z,2.10
2024-01-27T12:34:52.009Z,2.13
2024-01-27T12:36:53.949Z,1.63
2024-01-27T12:38:57.260Z,1.73
2024-01-27T12:40:59.042Z,1.58
2024-01-27T12:43:01.857Z,2.03
2024-01-27T12:45:03.656Z,2.15
2024-01-27T12:47:10.064Z,2.33
2024-01-27T12:49:15.281Z,1.30
2024-01-27T12:51:17.337Z,1.45
2024-01-27T12:53:19.052Z,2.35
2024-01-27T12:55:21.130Z,2.35
2024-01-27T12:57:23.087Z,1.58
2024-01-27T12:59:24.998Z,1.70
2024-01-27T13:01:31.784Z,1.10
2024-01-27T13:03:34.180Z,1.70
2024-01-27T13:05:36.009Z,2.00
2024-01-27T13:07:37.896Z,1.58
2024-01-27T13:09:39.684Z,2.50
2024-01-27T13:11:43.886Z,1.55
2024-01-27T13:13:48.187Z,1.38
2024-01-27T13:15:52.182Z,2.10
2024-01-27T13:17:54.050Z,2.13
2024-01-27T13:19:55.834Z,1.95
2024-01-27T13:22:02.239Z,1.77
2024-01-27T13:24:05.292Z,1.55
2024-01-27T13:26:17.546Z,1.10
2024-01-27T13:28:21.391Z,1.98
2024-01-27T13:30:23.562Z,2.10
2024-01-27T13:32:25.364Z,1.80
2024-01-27T13:34:29.789Z,1.90
2024-01-27T13:36:37.218Z,1.75
2024-01-27T13:38:39.032Z,1.48
2024-01-27T13:40:41.138Z,1.55
2024-01-27T13:42:43.288Z,1.83
2024-01-27T13:44:45.283Z,1.27
2024-01-27T13:46:47.278Z,1.80
2024-01-27T13:48:50.958Z,1.55
2024-01-27T13:50:54.618Z,1.10
2024-01-27T13:52:56.503Z,1.33
2024-01-27T13:54:58.434Z,1.77
2024-01-27T13:57:00.641Z,1.45
2024-01-27T13:59:02.707Z,1.35
2024-01-27T14:01:05.274Z,1.10
2024-01-27T14:03:07.280Z,1.17
2024-01-27T14:05:09.445Z,1.70
2024-01-27T14:07:11.510Z,1.95
2024-01-27T14:09:14.588Z,1.63
2024-01-27T14:11:16.809Z,1.90
2024-01-27T14:13:32.585Z,1.48
2024-01-27T14:15:34.654Z,2.08
2024-01-27T14:17:37.637Z,1.90
2024-01-27T14:19:41.786Z,1.77
2024-01-27T14:21:52.861Z,1.77
2024-01-27T14:24:02.095Z,1.63
2024-01-27T14:26:04.060Z,1.55
2024-01-27T14:28:08.356Z,1.40
2024-01-27T14:30:12.032Z,1.38
2024-01-27T14:32:13.767Z,1.75
2024-01-27T14:34:15.900Z,2.10
2024-01-27T14:36:18.271Z,2.42
2024-01-27T14:38:21.543Z,1.80
2024-01-27T14:40:23.625Z,1.90
2024-01-27T14:42:25.668Z,1.52
2024-01-27T14:44:27.332Z,1.50
2024-01-27T14:46:29.153Z,1.80
2024-01-27T14:48:31.057Z,1.92
2024-01-27T14:50:32.970Z,2.28
2024-01-27T14:52:38.410Z,1.27
2024-01-27T14:54:40.763Z,3.28
2024-01-27T14:56:42.598Z,1.75
2024-01-27T14:58:44.354Z,1.70
2024-01-27T15:00:46.242Z,2.17
2024-01-27T15:02:48.910Z,1.73
2024-01-27T15:04:50.581Z,2.63
2024-01-27T15:06:53.283Z,1.75
2024-01-27T15:08:55.435Z,2.28
2024-01-27T15:10:57.232Z,1.30
2024-01-27T15:13:02.373Z,1.80
2024-01-27T15:15:04.382Z,1.52
2024-01-27T15:17:08.530Z,1.48
2024-01-27T15:19:11.348Z,1.40
2024-01-27T15:21:13.894Z,1.83
2024-01-27T15:23:16.562Z,1.75
2024-01-27T15:25:18.295Z,1.27
2024-01-27T15:27:20.088Z,1.40
2024-01-27T15:29:21.766Z,1.55
2024-01-27T15:31:23.567Z,1.25
2024-01-27T15:33:25.588Z,1.13
2024-01-27T15:35:31.257Z,1.95
2024-01-27T15:37:33.082Z,1.80
2024-01-27T15:39:34.840Z,1.08
2024-01-27T15:41:39.092Z,1.33
2024-01-27T15:43:41.911Z,1.60
2024-01-27T15:45:43.866Z,2.00
2024-01-27T15:47:45.641Z,1.77
2024-01-27T15:49:47.678Z,2.00
2024-01-27T15:51:49.663Z,2.28
2024-01-27T15:53:51.365Z,1.65
2024-01-27T15:55:53.245Z,1.10
2024-01-27T15:57:54.922Z,1.63
2024-01-27T15:59:57.036Z,2.08
2024-01-27T16:01:58.906Z,1.20
2024-01-27T16:04:00.754Z,1.13
2024-01-27T16:06:02.603Z,1.13
2024-01-27T16:08:04.725Z,1.98
2024-01-27T16:10:07.320Z,2.58
2024-01-27T16:12:09.295Z,1.75
2024-01-27T16:14:12.228Z,1.23
2024-01-27T16:16:14.465Z,1.65
2024-01-27T16:18:16.573Z,2.38
2024-01-27T16:20:18.811Z,1.35
2024-01-27T16:22:23.938Z,1.42
2024-01-27T16:24:25.670Z,2.85
2024-01-27T16:26:28.529Z,1.80
2024-01-27T16:28:31.581Z,3.15
2024-01-27T16:30:33.524Z,1.52
2024-01-27T16:32:36.766Z,1.98
2024-01-27T16:34:38.675Z,2.22
2024-01-27T16:36:40.504Z,1.58
2024-01-27T16:38:44.952Z,1.33
2024-01-27T16:40:47.512Z,2.95
2024-01-27T16:42:49.206Z,1.85
2024-01-27T16:44:51.981Z,1.63
2024-01-27T16:46:53.646Z,1.17
2024-01-27T16:48:58.113Z,2.05
2024-01-27T16:51:00.235Z,1.85
2024-01-27T16:53:02.016Z,1.75
2024-01-27T16:55:03.806Z,2.20
2024-01-27T16:57:05.681Z,1.75
2024-01-27T16:59:09.194Z,2.58
2024-01-27T17:01:11.101Z,1.90
2024-01-27T17:03:13.045Z,2.00
2024-01-27T17:05:15.228Z,2.50
2024-01-27T17:07:17.386Z,1.67
2024-01-27T17:09:19.110Z,2.85
2024-01-27T17:11:21.280Z,2.33
2024-01-27T17:13:23.025Z,2.33
2024-01-27T17:15:25.801Z,2.33
2024-01-27T17:17:27.822Z,2.00
2024-01-27T17:19:29.700Z,2.42
2024-01-27T17:21:38.346Z,2.17
2024-01-27T17:23:40.098Z,2.30
2024-01-27T17:25:43.149Z,2.22
2024-01-27T17:27:45.602Z,2.70
2024-01-27T17:29:47.964Z,2.58
2024-01-27T17:31:54.151Z,1.98
2024-01-27T17:33:56.110Z,2.78
2024-01-27T17:35:57.855Z,3.45
2024-01-27T17:37:59.750Z,1.92
2024-01-27T17:40:05.388Z,2.70
2024-01-27T17:42:08.812Z,2.17
2024-01-27T17:44:11.671Z,2.53
2024-01-27T17:46:14.377Z,2.95
2024-01-27T17:48:16.362Z,2.42
2024-01-27T17:50:18.314Z,2.72
2024-01-27T17:52:20.106Z,2.20
2024-01-27T17:54:21.952Z,3.55
2024-01-27T17:56:25.308Z,2.35
2024-01-27T17:58:27.106Z,2.03
2024-01-27T18:00:28.908Z,2.25
2024-01-27T18:02:30.914Z,2.83
2024-01-27T18:04:32.928Z,2.70
2024-01-27T18:06:34.864Z,2.95
2024-01-27T18:08:36.705Z,3.60
2024-01-27T18:10:38.396Z,3.95
2024-01-27T18:12:43.001Z,3.28
2024-01-27T18:14:45.278Z,2.92
2024-01-27T18:16:47.105Z,3.53
2024-01-27T18:18:48.848Z,3.15
2024-01-27T18:20:50.705Z,2.45
2024-01-27T18:22:52.664Z,2.47
2024-01-27T18:24:54.994Z,2.70
2024-01-27T18:26:57.014Z,3.22
2024-01-27T18:28:58.799Z,3.22
2024-01-27T18:31:00.544Z,2.15
2024-01-27T18:33:05.536Z,2.65
2024-01-27T18:35:08.393Z,2.90
2024-01-27T18:37:10.266Z,3.03
2024-01-27T18:39:16.308Z,2.58
2024-01-27T18:41:18.243Z,3.83
2024-01-27T18:43:19.916Z,2.45
2024-01-27T18:45:21.720Z,2.75
2024-01-27T18:47:28.861Z,2.70
2024-01-27T18:49:30.790Z,2.92
2024-01-27T18:51:41.440Z,2.88
2024-01-27T18:53:48.748Z,2.50
2024-01-27T18:55:51.175Z,2.97
2024-01-27T18:57:52.912Z,3.15
2024-01-27T18:59:54.618Z,2.80
2024-01-27T19:01:58.486Z,3.10
2024-01-27T19:04:00.284Z,3.78
2024-01-27T19:06:02.242Z,3.13
2024-01-27T19:08:04.578Z,2.50
2024-01-27T19:10:06.930Z,2.92
2024-01-27T19:12:08.975Z,2.90
2024-01-27T19:14:10.950Z,3.67
2024-01-27T19:16:12.610Z,3.30
2024-01-27T19:18:14.500Z,3.50
2024-01-27T19:20:16.480Z,2.60
2024-01-27T19:22:18.842Z,2.70
2024-01-27T19:24:20.622Z,3.50
2024-01-27T19:26:22.514Z,3.50
2024-01-27T19:28:24.327Z,2.80
2024-01-27T19:30:26.090Z,2.88
2024-01-27T19:32:34.111Z,2.75
2024-01-27T19:34:39.156Z,2.90
2024-01-27T19:36:42.792Z,4.72
2024-01-27T19:38:44.720Z,3.90
2024-01-27T19:40:58.917Z,3.22
2024-01-27T19:43:08.170Z,4.05
2024-01-27T19:45:10.544Z,3.10
2024-01-27T19:47:12.253Z,2.92
2024-01-27T19:49:14.133Z,3.55
2024-01-27T19:51:16.085Z,3.85
2024-01-27T19:53:17.906Z,4.07
2024-01-27T19:55:19.598Z,3.92
2024-01-27T19:57:21.388Z,3.63
2024-01-27T19:59:23.105Z,4.63
2024-01-27T20:01:24.939Z,3.45
2024-01-27T20:03:26.819Z,4.18
2024-01-27T20:05:29.525Z,3.85
2024-01-27T20:07:33.934Z,4.47
2024-01-27T20:09:35.767Z,4.20
2024-01-27T20:11:43.909Z,4.35
2024-01-27T20:13:45.690Z,3.53
2024-01-27T20:15:47.563Z,3.58
2024-01-27T20:17:49.550Z,2.85
2024-01-27T20:19:55.353Z,4.22
2024-01-27T20:21:58.305Z,3.60
2024-01-27T20:24:00.309Z,3.97
2024-01-27T20:26:05.596Z,3.53
2024-01-27T20:28:07.323Z,3.00
2024-01-27T20:30:09.531Z,3.83
2024-01-27T20:32:11.382Z,4.00
2024-01-27T20:34:13.935Z,3.58
2024-01-27T20:36:16.457Z,3.72
2024-01-27T20:38:18.296Z,3.78
2024-01-27T20:40:20.124Z,4.05
2024-01-27T20:42:22.091Z,4.22
2024-01-27T20:44:23.928Z,3.88
2024-01-27T20:46:25.932Z,4.00
2024-01-27T20:48:27.915Z,2.85
2024-01-27T20:50:29.750Z,2.50
2024-01-27T20:52:31.686Z,3.47
2024-01-27T20:54:34.863Z,3.47
2024-01-27T20:56:36.831Z,2.50
2024-01-27T20:58:40.696Z,3.40
2024-01-27T21:00:42.552Z,3.83
2024-01-27T21:02:46.984Z,3.05
2024-01-27T21:04:48.741Z,3.13
2024-01-27T21:06:50.761Z,2.60
2024-01-27T21:08:52.556Z,3.13
2024-01-27T21:10:54.476Z,2.63
2024-01-27T21:12:56.248Z,2.92
2024-01-27T21:14:58.018Z,3.00
2024-01-27T21:16:59.912Z,3.03
2024-01-27T21:19:01.962Z,3.40
2024-01-27T21:21:05.688Z,2.72
2024-01-27T21:23:08.796Z,3.88
2024-01-27T21:25:11.099Z,2.90
2024-01-27T21:27:13.030Z,3.13
2024-01-27T21:29:14.814Z,3.25
2024-01-27T21:31:16.730Z,3.40
2024-01-27T21:33:18.577Z,2.85
2024-01-27T21:35:20.389Z,3.03
2024-01-27T21:37:22.119Z,3.28
2024-01-27T21:39:27.144Z,4.53
2024-01-27T21:41:34.981Z,3.80
2024-01-27T21:43:36.733Z,3.05
2024-01-27T21:45:38.977Z,3.22
2024-01-27T21:47:41.024Z,3.08
2024-01-27T21:49:43.361Z,3.15
2024-01-27T21:51:53.372Z,2.85
2024-01-27T21:53:55.757Z,3.25
2024-01-27T21:55:57.493Z,3.75
2024-01-27T21:57:59.351Z,3.22
2024-01-27T22:00:01.696Z,2.92
2024-01-27T22:02:03.696Z,2.83
2024-01-27T22:04:05.689Z,3.03
2024-01-27T22:06:08.971Z,2.88
2024-01-27T22:08:13.630Z,3.67
2024-01-27T22:10:15.502Z,3.20
2024-01-27T22:12:21.412Z,2.95
2024-01-27T22:14:26.514Z,3.25
2024-01-27T22:16:28.437Z,3.17
2024-01-27T22:18:32.073Z,2.88
2024-01-27T22:20:34.305Z,3.17
2024-01-27T22:22:36.765Z,3.42
2024-01-27T22:24:38.672Z,3.15
2024-01-27T22:26:40.549Z,2.80
2024-01-27T22:28:42.464Z,2.72
2024-01-27T22:30:47.925Z,3.00
2024-01-27T22:32:49.755Z,3.00
2024-01-27T22:34:51.938Z,3.00
2024-01-27T22:36:53.695Z,2.75
2024-01-27T22:38:56.708Z,2.70
2024-01-27T22:40:58.830Z,3.70
2024-01-27T22:43:00.672Z,2.78
2024-01-27T22:45:02.524Z,3.45
2024-01-27T22:47:04.502Z,2.58
2024-01-27T22:49:07.378Z,2.35
2024-01-27T22:51:09.231Z,3.35
2024-01-27T22:53:11.117Z,2.20
2024-01-27T22:55:14.195Z,2.70
2024-01-27T22:57:15.947Z,3.28
2024-01-27T22:59:18.640Z,2.97
2024-01-27T23:01:23.208Z,2.92
2024-01-27T23:03:25.159Z,3.25
2024-01-27T23:05:27.065Z,2.80
2024-01-27T23:07:28.753Z,3.53
2024-01-27T23:09:30.597Z,3.25
2024-01-27T23:11:36.485Z,2.63
2024-01-27T23:13:38.330Z,2.83
2024-01-27T23:15:40.762Z,3.95
2024-01-27T23:17:42.693Z,2.67
2024-01-27T23:19:44.594Z,3.15
2024-01-27T23:21:46.780Z,2.45
2024-01-27T23:23:48.624Z,3.15
2024-01-27T23:25:50.289Z,3.40
2024-01-27T23:27:52.095Z,2.60
2024-01-27T23:29:54.708Z,2.63
2024-01-27T23:31:56.958Z,2.88
2024-01-27T23:33:59.911Z,2.58
2024-01-27T23:36:01.820Z,2.63
2024-01-27T23:38:03.604Z,2.63
2024-01-27T23:40:08.888Z,2.75
2024-01-27T23:42:11.557Z,2.83
2024-01-27T23:44:13.243Z,2.50
2024-01-27T23:46:14.903Z,2.80
2024-01-27T23:48:16.946Z,2.95
2024-01-27T23:50:20.025Z,1.95
2024-01-27T23:52:26.165Z,2.85
2024-01-27T23:54:28.161Z,3.17
2024-01-27T23:56:29.871Z,2.85
2024-01-27T23:58:31.667Z,3.60
